createdAt,value
2023-02-28T00:07:55.513Z,100680.88
2023-02-28T00:17:30.245Z,100687.88
2023-02-28T00:27:00.918Z,100685.48
2023-02-28T00:36:34.556Z,100682.52
2023-02-28T00:46:07.013Z,100681.80
2023-02-28T00:55:40.287Z,100683.78
2023-02-28T01:05:12.403Z,100687.84
2023-02-28T01:14:45.106Z,100682.34
2023-02-28T01:24:19.631Z,100676.73
2023-02-28T01:33:50.362Z,100667.98
2023-02-28T01:43:24.961Z,100669.04
2023-02-28T01:52:55.661Z,100667.19
2023-02-28T02:02:30.145Z,100673.25
2023-02-28T02:12:01.020Z,100674.71
2023-02-28T02:21:36.797Z,100656.06
2023-02-28T02:31:06.928Z,100651.09
2023-02-28T02:50:12.755Z,100655.16
2023-02-28T02:59:46.216Z,100656.23
2023-02-28T03:09:18.851Z,100655.50
2023-02-28T03:18:48.782Z,100650.48
2023-02-28T03:28:23.493Z,100634.50
2023-02-28T03:37:54.876Z,100647.23
2023-02-28T03:47:29.431Z,100648.66
2023-02-28T03:57:00.345Z,100647.66
2023-02-28T04:06:35.224Z,100653.07
2023-02-28T04:16:06.944Z,100660.00
2023-02-28T04:25:39.954Z,100664.02
2023-02-28T04:35:13.286Z,100660.14
2023-02-28T04:44:46.362Z,100661.17
2023-02-28T04:54:19.261Z,100653.66
2023-02-28T05:03:52.433Z,100650.69
2023-02-28T05:13:26.009Z,100655.52
2023-02-28T05:22:59.406Z,100655.03
2023-02-28T05:32:34.089Z,100658.45
2023-02-28T05:42:07.352Z,100658.20
2023-02-28T05:51:38.596Z,100668.14
2023-02-28T06:01:11.729Z,100670.25
2023-02-28T06:10:45.124Z,100675.38
2023-02-28T06:20:18.039Z,100686.34
2023-02-28T06:29:52.795Z,100682.00
2023-02-28T06:39:25.472Z,100688.22
2023-02-28T06:48:56.928Z,100699.81
2023-02-28T06:58:30.666Z,100706.58
2023-02-28T07:08:04.043Z,100712.00
2023-02-28T07:17:37.126Z,100709.02
2023-02-28T07:27:10.812Z,100714.19
2023-02-28T07:36:44.216Z,100726.36
2023-02-28T07:46:18.317Z,100719.87
2023-02-28T07:55:54.073Z,100717.19
2023-02-28T08:05:24.959Z,100726.50
2023-02-28T08:14:59.740Z,100731.89
2023-02-28T08:24:31.322Z,100723.31
2023-02-28T08:34:02.769Z,100726.14
2023-02-28T08:43:34.925Z,100733.92
2023-02-28T08:53:09.686Z,100723.94
2023-02-28T08:54:12.108Z,100722.67
2023-02-28T08:55:14.342Z,100723.55
2023-02-28T09:04:47.000Z,100720.27
2023-02-28T09:05:49.428Z,100714.86
2023-02-28T09:06:53.517Z,100713.81
2023-02-28T09:07:57.435Z,100714.37
2023-02-28T09:17:30.583Z,100715.64
2023-02-28T09:18:32.033Z,100704.20
2023-02-28T09:28:04.390Z,100708.32
2023-02-28T09:29:06.878Z,100709.77
2023-02-28T09:30:09.171Z,100709.27
2023-02-28T09:31:11.677Z,100716.85
2023-02-28T09:32:14.080Z,100712.27
2023-02-28T09:33:16.397Z,100713.92
2023-02-28T09:34:20.465Z,100703.31
2023-02-28T09:35:22.718Z,100713.08
2023-02-28T09:36:31.624Z,100712.25
2023-02-28T09:37:28.999Z,100708.70
2023-02-28T09:38:31.307Z,100711.55
2023-02-28T09:48:04.158Z,100706.20
2023-02-28T09:49:06.441Z,100704.17
2023-02-28T09:50:08.871Z,100708.20
2023-02-28T09:51:12.828Z,100708.58
2023-02-28T09:52:16.778Z,100712.08
2023-02-28T09:53:19.070Z,100712.55
2023-02-28T10:02:51.120Z,100712.65
2023-02-28T10:03:53.465Z,100710.72
2023-02-28T10:04:56.026Z,100715.36
2023-02-28T10:05:59.516Z,100707.68
2023-02-28T10:07:03.423Z,100711.48
2023-02-28T10:08:07.271Z,100712.61
2023-02-28T10:09:09.549Z,100712.33
2023-02-28T10:10:11.954Z,100708.27
2023-02-28T10:11:14.323Z,100725.34
2023-02-28T10:12:16.683Z,100713.11
2023-02-28T10:13:20.707Z,100717.94
2023-02-28T10:14:22.929Z,100702.61
2023-02-28T10:15:26.909Z,100715.46
2023-02-28T10:16:31.161Z,100715.16
2023-02-28T10:17:39.883Z,100710.41
2023-02-28T10:18:36.849Z,100716.19
2023-02-28T10:19:39.232Z,100714.20
2023-02-28T10:20:41.757Z,100712.49
2023-02-28T10:21:44.179Z,100711.66
2023-02-28T10:22:46.566Z,100714.88
2023-02-28T10:23:48.982Z,100720.09
2023-02-28T10:24:51.358Z,100705.84
2023-02-28T10:25:53.880Z,100714.97
2023-02-28T10:26:56.231Z,100706.41
2023-02-28T10:36:27.757Z,100711.48
2023-02-28T10:46:01.476Z,100704.38
2023-02-28T10:47:05.346Z,100704.44
2023-02-28T10:48:07.626Z,100705.52
2023-02-28T10:49:10.070Z,100711.63
2023-02-28T10:50:14.258Z,100702.01
2023-02-28T10:51:18.144Z,100709.92
2023-02-28T10:52:20.495Z,100706.66
2023-02-28T10:53:24.388Z,100703.11
2023-02-28T10:54:28.247Z,100695.19
2023-02-28T10:55:30.562Z,100698.31
2023-02-28T10:56:33.057Z,100695.78
2023-02-28T10:57:36.678Z,100698.71
2023-02-28T10:58:38.960Z,100704.63
2023-02-28T10:59:42.927Z,100693.61
2023-02-28T11:00:45.254Z,100691.70
2023-02-28T11:01:47.753Z,100695.31
2023-02-28T11:02:50.258Z,100693.18
2023-02-28T11:03:52.523Z,100695.27
2023-02-28T11:04:56.426Z,100688.52
2023-02-28T11:06:00.268Z,100691.41
2023-02-28T11:07:04.086Z,100687.27
2023-02-28T11:08:07.965Z,100686.44
2023-02-28T11:09:10.267Z,100685.52
2023-02-28T11:10:12.805Z,100684.87
2023-02-28T11:11:15.187Z,100688.19
2023-02-28T11:12:18.984Z,100688.11
2023-02-28T11:13:21.271Z,100686.58
2023-02-28T11:14:25.236Z,100694.73
2023-02-28T11:15:27.568Z,100688.09
2023-02-28T11:16:29.914Z,100686.88
2023-02-28T11:17:32.278Z,100683.70
2023-02-28T11:18:34.716Z,100685.41
2023-02-28T11:19:37.149Z,100690.65
2023-02-28T11:20:41.195Z,100672.63
2023-02-28T11:21:43.397Z,100672.88
2023-02-28T11:22:45.818Z,100674.17
2023-02-28T11:23:49.702Z,100676.58
2023-02-28T11:24:51.990Z,100671.20
2023-02-28T11:25:56.024Z,100672.06
2023-02-28T11:26:59.894Z,100666.67
2023-02-28T11:28:02.201Z,100668.16
2023-02-28T11:29:04.593Z,100672.69
2023-02-28T11:30:08.562Z,100667.92
2023-02-28T11:31:12.594Z,100668.46
2023-02-28T11:32:16.279Z,100671.63
2023-02-28T11:33:18.447Z,100665.05
2023-02-28T11:34:22.539Z,100667.34
2023-02-28T11:35:25.004Z,100667.31
2023-02-28T11:36:27.425Z,100666.83
2023-02-28T11:37:31.203Z,100666.13
2023-02-28T11:38:39.171Z,100660.00
2023-02-28T11:39:41.195Z,100655.96
2023-02-28T11:40:45.068Z,100666.20
2023-02-28T11:41:47.246Z,100663.00
2023-02-28T11:42:49.416Z,100669.92
2023-02-28T11:43:53.364Z,100660.27
2023-02-28T11:44:55.612Z,100658.98
2023-02-28T11:45:58.078Z,100658.76
2023-02-28T11:47:00.503Z,100659.41
2023-02-28T11:48:04.322Z,100663.88
2023-02-28T11:49:06.564Z,100663.72
2023-02-28T11:50:15.658Z,100670.56
2023-02-28T11:51:19.236Z,100670.33
2023-02-28T11:52:26.511Z,100665.14
2023-02-28T11:53:30.252Z,100669.79
2023-02-28T11:54:34.076Z,100658.38
2023-02-28T11:55:36.243Z,100659.16
2023-02-28T11:56:38.713Z,100663.47
2023-02-28T11:57:41.073Z,100657.39
2023-02-28T11:58:47.245Z,100657.13
2023-02-28T11:59:48.908Z,100658.80
2023-02-28T12:00:51.208Z,100654.95
2023-02-28T12:01:55.216Z,100655.88
2023-02-28T12:02:59.057Z,100654.34
2023-02-28T12:04:02.977Z,100655.45
2023-02-28T12:05:07.833Z,100665.67
2023-02-28T12:06:09.090Z,100655.10
2023-02-28T12:07:11.499Z,100655.55
2023-02-28T12:08:13.980Z,100652.06
2023-02-28T12:09:16.334Z,100658.22
2023-02-28T12:10:18.766Z,100658.26
2023-02-28T12:11:22.790Z,100656.73
2023-02-28T12:12:25.476Z,100651.86
2023-02-28T12:13:29.024Z,100647.22
2023-02-28T12:14:32.844Z,100657.62
2023-02-28T12:15:36.679Z,100658.61
2023-02-28T12:16:40.589Z,100659.33
2023-02-28T12:17:44.375Z,100655.06
2023-02-28T12:18:46.628Z,100655.75
2023-02-28T12:19:48.976Z,100659.89
2023-02-28T12:20:52.925Z,100656.38
2023-02-28T12:21:56.809Z,100652.05
2023-02-28T12:23:00.649Z,100649.64
2023-02-28T12:24:04.547Z,100653.52
2023-02-28T12:25:08.335Z,100650.71
2023-02-28T12:26:10.634Z,100653.02
2023-02-28T12:27:14.706Z,100646.83
2023-02-28T12:28:18.476Z,100647.66
2023-02-28T12:29:22.418Z,100641.86
2023-02-28T12:30:26.296Z,100654.32
2023-02-28T12:31:30.630Z,100640.52
2023-02-28T12:32:32.395Z,100641.86
2023-02-28T12:33:36.360Z,100649.92
2023-02-28T12:34:38.608Z,100640.63
2023-02-28T12:35:41.105Z,100647.01
2023-02-28T12:36:45.052Z,100645.89
2023-02-28T12:37:47.290Z,100646.18
2023-02-28T12:38:49.641Z,100644.55
2023-02-28T12:39:52.030Z,100645.44
2023-02-28T12:40:54.393Z,100641.02
2023-02-28T12:41:56.808Z,100641.92
2023-02-28T12:42:59.224Z,100638.61
2023-02-28T12:44:03.189Z,100640.20
2023-02-28T12:45:07.033Z,100645.88
2023-02-28T12:46:09.442Z,100641.64
2023-02-28T12:47:11.692Z,100637.33
2023-02-28T12:48:15.657Z,100639.94
2023-02-28T12:49:18.042Z,100639.67
2023-02-28T12:50:20.461Z,100640.72
2023-02-28T12:51:24.451Z,100632.58
2023-02-28T12:52:26.794Z,100647.48
2023-02-28T12:53:30.767Z,100640.05
2023-02-28T12:54:33.049Z,100636.49
2023-02-28T12:55:35.443Z,100631.45
2023-02-28T12:56:39.478Z,100629.50
2023-02-28T12:57:43.458Z,100635.55
2023-02-28T12:58:45.727Z,100634.66
2023-02-28T12:59:48.088Z,100635.89
2023-02-28T13:00:52.102Z,100630.06
2023-02-28T13:01:56.054Z,100633.67
2023-02-28T13:02:59.505Z,100626.72
2023-02-28T13:04:00.683Z,100634.59
2023-02-28T13:05:04.703Z,100636.03
2023-02-28T13:06:08.566Z,100633.70
2023-02-28T13:07:12.476Z,100630.84
2023-02-28T13:08:14.736Z,100626.13
2023-02-28T13:09:18.733Z,100631.00
2023-02-28T13:10:21.090Z,100628.59
2023-02-28T13:11:25.051Z,100625.64
2023-02-28T13:12:27.377Z,100623.18
2023-02-28T13:13:31.427Z,100626.34
2023-02-28T13:14:33.687Z,100623.98
2023-02-28T13:15:37.727Z,100629.20
2023-02-28T13:16:40.140Z,100632.38
2023-02-28T13:17:42.506Z,100630.05
2023-02-28T13:18:44.993Z,100630.88
2023-02-28T13:19:47.332Z,100628.02
2023-02-28T13:20:49.725Z,100625.42
2023-02-28T13:21:53.786Z,100625.68
2023-02-28T13:22:57.692Z,100627.24
2023-02-28T13:23:59.925Z,100624.67
2023-02-28T13:25:03.919Z,100635.16
2023-02-28T13:26:07.777Z,100626.69
2023-02-28T13:27:11.625Z,100624.73
2023-02-28T13:28:15.488Z,100622.73
2023-02-28T13:29:17.764Z,100617.67
2023-02-28T13:30:20.298Z,100624.72
2023-02-28T13:31:24.302Z,100624.04
2023-02-28T13:32:28.288Z,100623.01
2023-02-28T13:33:30.585Z,100616.61
2023-02-28T13:34:33.132Z,100624.70
2023-02-28T13:35:35.559Z,100617.19
2023-02-28T13:36:39.547Z,100619.75
2023-02-28T13:37:41.941Z,100620.66
2023-02-28T13:38:44.358Z,100620.59
2023-02-28T13:39:46.774Z,100615.06
2023-02-28T13:40:50.767Z,100598.33
2023-02-28T13:41:53.050Z,100618.20
2023-02-28T13:42:55.447Z,100623.55
2023-02-28T13:43:59.428Z,100625.51
2023-02-28T13:45:01.810Z,100630.19
2023-02-28T13:46:04.181Z,100625.94
2023-02-28T13:47:06.565Z,100626.08
2023-02-28T13:48:10.518Z,100627.38
2023-02-28T13:49:12.823Z,100622.03
2023-02-28T13:50:16.701Z,100622.09
2023-02-28T13:51:17.582Z,100634.16
2023-02-28T13:52:19.994Z,100624.66
2023-02-28T13:53:22.362Z,100622.00
2023-02-28T13:54:26.396Z,100625.08
2023-02-28T13:55:30.266Z,100628.17
2023-02-28T13:56:34.099Z,100629.80
2023-02-28T13:57:36.317Z,100628.25
2023-02-28T13:58:38.754Z,100626.30
2023-02-28T13:59:42.782Z,100616.84
2023-02-28T14:00:45.027Z,100622.86
2023-02-28T14:01:47.933Z,100621.36
2023-02-28T14:02:50.163Z,100622.30
2023-02-28T14:03:52.471Z,100617.83
2023-02-28T14:04:55.124Z,100617.31
2023-02-28T14:05:57.428Z,100611.34
2023-02-28T14:07:01.440Z,100609.00
2023-02-28T14:08:03.658Z,100610.05
2023-02-28T14:09:06.083Z,100610.91
2023-02-28T14:10:08.619Z,100610.00
2023-02-28T14:11:10.900Z,100607.78
2023-02-28T14:12:14.884Z,100605.07
2023-02-28T14:13:17.176Z,100604.55
2023-02-28T14:14:19.594Z,100605.98
2023-02-28T14:15:22.016Z,100610.42
2023-02-28T14:16:24.460Z,100614.48
2023-02-28T14:17:26.812Z,100607.63
2023-02-28T14:18:29.239Z,100607.91
2023-02-28T14:19:31.644Z,100603.38
2023-02-28T14:20:34.017Z,100606.70
2023-02-28T14:21:38.241Z,100603.72
2023-02-28T14:22:40.547Z,100602.89
2023-02-28T14:23:42.929Z,100603.11
2023-02-28T14:24:45.567Z,100610.45
2023-02-28T14:25:49.438Z,100614.86
2023-02-28T14:26:53.365Z,100600.83
2023-02-28T14:27:57.330Z,100598.45
2023-02-28T14:28:59.618Z,100605.63
2023-02-28T14:30:03.717Z,100601.20
2023-02-28T14:31:06.222Z,100603.47
2023-02-28T14:32:08.601Z,100603.27
2023-02-28T14:33:10.956Z,100597.56
2023-02-28T14:34:13.394Z,100595.86
2023-02-28T14:35:17.426Z,100593.45
2023-02-28T14:36:19.734Z,100596.32
2023-02-28T14:37:23.779Z,100596.23
2023-02-28T14:38:27.653Z,100596.05
2023-02-28T14:39:30.222Z,100602.81
2023-02-28T14:40:32.621Z,100603.65
2023-02-28T14:41:35.065Z,100601.52
2023-02-28T14:42:39.041Z,100600.35
2023-02-28T14:43:41.398Z,100592.29
2023-02-28T14:44:45.447Z,100597.36
2023-02-28T14:45:47.763Z,100594.73
2023-02-28T14:46:50.326Z,100596.48
2023-02-28T14:47:54.417Z,100584.89
2023-02-28T14:48:56.802Z,100584.81
2023-02-28T14:50:00.829Z,100587.78
2023-02-28T14:51:04.792Z,100588.36
2023-02-28T14:52:07.133Z,100586.22
2023-02-28T14:53:10.609Z,100583.95
2023-02-28T14:54:14.606Z,100585.73
2023-02-28T14:55:16.947Z,100587.39
2023-02-28T14:56:21.022Z,100588.08
2023-02-28T14:57:23.498Z,100579.13
2023-02-28T14:58:25.840Z,100581.98
2023-02-28T14:59:28.285Z,100577.19
2023-02-28T15:00:30.738Z,100579.38
2023-02-28T15:01:34.916Z,100582.50
2023-02-28T15:02:37.145Z,100584.25
2023-02-28T15:03:39.566Z,100590.47
2023-02-28T15:04:43.727Z,100580.89
2023-02-28T15:05:47.570Z,100584.54
2023-02-28T15:06:51.489Z,100575.33
2023-02-28T15:07:53.965Z,100581.91
2023-02-28T15:08:58.012Z,100576.49
2023-02-28T15:10:01.898Z,100578.70
2023-02-28T15:11:04.220Z,100578.83
2023-02-28T15:12:06.644Z,100578.78
2023-02-28T15:13:10.669Z,100584.81
2023-02-28T15:14:13.020Z,100575.41
2023-02-28T15:15:15.438Z,100575.66
2023-02-28T15:16:19.445Z,100573.08
2023-02-28T15:17:23.380Z,100577.67
2023-02-28T15:18:25.727Z,100584.79
2023-02-28T15:19:28.161Z,100584.55
2023-02-28T15:20:30.616Z,100580.87
2023-02-28T15:21:34.584Z,100587.42
2023-02-28T15:22:36.971Z,100584.20
2023-02-28T15:23:39.449Z,100587.03
2023-02-28T15:24:43.477Z,100586.31
2023-02-28T15:25:47.458Z,100577.28
2023-02-28T15:26:51.359Z,100583.98
2023-02-28T15:27:53.663Z,100585.81
2023-02-28T15:28:56.155Z,100588.64
2023-02-28T15:30:00.181Z,100583.69
2023-02-28T15:31:04.179Z,100589.45
2023-02-28T15:32:06.516Z,100585.20
2023-02-28T15:33:10.357Z,100585.22
2023-02-28T15:34:14.281Z,100588.34
2023-02-28T15:35:16.586Z,100583.85
2023-02-28T15:36:20.591Z,100584.59
2023-02-28T15:37:24.554Z,100584.42
2023-02-28T15:38:28.457Z,100585.22
2023-02-28T15:39:32.378Z,100589.29
2023-02-28T15:40:36.277Z,100583.64
2023-02-28T15:41:38.641Z,100590.47
2023-02-28T15:42:42.714Z,100587.20
2023-02-28T15:43:45.113Z,100587.00
2023-02-28T15:44:47.573Z,100585.55
2023-02-28T15:45:50.079Z,100583.06
2023-02-28T15:46:55.158Z,100584.74
2023-02-28T15:47:59.896Z,100590.80
2023-02-28T15:49:01.411Z,100584.86
2023-02-28T15:50:03.678Z,100587.05
2023-02-28T15:51:06.061Z,100587.45
2023-02-28T15:52:10.164Z,100586.17
2023-02-28T15:53:12.447Z,100592.44
2023-02-28T15:54:15.021Z,100593.13
2023-02-28T15:55:17.369Z,100598.38
2023-02-28T15:56:21.388Z,100599.31
2023-02-28T15:57:23.604Z,100603.94
2023-02-28T15:58:27.541Z,100599.77
2023-02-28T15:59:31.500Z,100603.23
2023-02-28T16:00:35.399Z,100604.28
2023-02-28T16:01:39.350Z,100605.20
2023-02-28T16:02:43.554Z,100605.23
2023-02-28T16:03:45.646Z,100604.32
2023-02-28T16:04:49.062Z,100606.42
2023-02-28T16:05:51.496Z,100601.79
2023-02-28T16:06:53.931Z,100602.48
2023-02-28T16:07:56.368Z,100603.52
2023-02-28T16:08:58.925Z,100606.95
2023-02-28T16:10:01.546Z,100606.30
2023-02-28T16:11:03.657Z,100605.76
2023-02-28T16:12:07.596Z,100604.44
2023-02-28T16:13:09.889Z,100608.36
2023-02-28T16:14:12.308Z,100605.33
2023-02-28T16:15:14.703Z,100607.25
2023-02-28T16:16:17.109Z,100608.77
2023-02-28T16:17:19.494Z,100614.60
2023-02-28T16:18:23.479Z,100612.36
2023-02-28T16:19:27.373Z,100612.72
2023-02-28T16:20:29.666Z,100610.95
2023-02-28T16:21:32.210Z,100619.13
2023-02-28T16:22:36.012Z,100610.98
2023-02-28T16:23:39.937Z,100617.42
2023-02-28T16:24:42.317Z,100620.00
2023-02-28T16:25:44.637Z,100619.16
2023-02-28T16:26:47.019Z,100616.49
2023-02-28T16:27:51.235Z,100618.25
2023-02-28T16:28:53.357Z,100619.34
2023-02-28T16:29:55.701Z,100619.84
2023-02-28T16:30:58.203Z,100619.03
2023-02-28T16:32:02.166Z,100620.23
2023-02-28T16:33:05.960Z,100617.64
2023-02-28T16:34:08.165Z,100616.64
2023-02-28T16:35:12.153Z,100614.95
2023-02-28T16:36:16.280Z,100620.63
2023-02-28T16:37:18.478Z,100621.69
2023-02-28T16:38:22.462Z,100615.27
2023-02-28T16:39:26.317Z,100616.88
2023-02-28T16:40:28.590Z,100618.66
2023-02-28T16:41:31.358Z,100621.70
2023-02-28T16:42:34.357Z,100623.11
2023-02-28T16:43:36.663Z,100622.39
2023-02-28T16:44:39.029Z,100624.23
2023-02-28T16:45:43.005Z,100624.64
2023-02-28T16:46:46.845Z,100626.53
2023-02-28T16:47:49.066Z,100625.30
2023-02-28T16:48:51.423Z,100624.59
2023-02-28T16:49:53.817Z,100627.25
2023-02-28T16:50:57.837Z,100632.91
2023-02-28T16:52:01.731Z,100632.75
2023-02-28T16:53:05.565Z,100632.58
2023-02-28T16:54:10.500Z,100636.34
2023-02-28T16:55:14.359Z,100638.45
2023-02-28T16:56:18.261Z,100632.25
2023-02-28T16:57:20.417Z,100634.72
2023-02-28T16:58:22.831Z,100634.18
2023-02-28T16:59:26.240Z,100636.67
2023-02-28T17:00:28.619Z,100634.92
2023-02-28T17:01:31.321Z,100638.09
2023-02-28T17:02:35.190Z,100636.30
2023-02-28T17:03:38.786Z,100639.89
2023-02-28T17:04:41.103Z,100642.83
2023-02-28T17:05:43.477Z,100646.67
2023-02-28T17:06:45.860Z,100641.63
2023-02-28T17:07:48.284Z,100644.62
2023-02-28T17:08:50.645Z,100647.08
2023-02-28T17:09:54.877Z,100650.09
2023-02-28T17:10:58.742Z,100649.36
2023-02-28T17:12:00.987Z,100659.20
2023-02-28T17:13:14.351Z,100658.41
2023-02-28T17:14:07.300Z,100656.07
2023-02-28T17:15:09.943Z,100657.72
2023-02-28T17:16:12.269Z,100663.34
2023-02-28T17:25:43.088Z,100668.98
2023-02-28T17:35:15.967Z,100678.17
2023-02-28T17:44:49.060Z,100694.05
2023-02-28T17:54:22.463Z,100703.87
2023-02-28T18:03:55.866Z,100715.28
2023-02-28T18:13:31.142Z,100718.15
2023-02-28T18:23:04.537Z,100714.63
2023-02-28T18:32:36.394Z,100710.18
2023-02-28T18:42:11.033Z,100710.91
2023-02-28T18:51:42.260Z,100716.88
2023-02-28T19:01:17.575Z,100720.89
2023-02-28T19:10:49.048Z,100715.63
2023-02-28T19:20:22.602Z,100713.05
2023-02-28T19:29:55.971Z,100712.47
2023-02-28T19:39:31.233Z,100719.13
2023-02-28T19:49:04.828Z,100715.98
2023-02-28T19:58:38.374Z,100716.80
2023-02-28T20:08:11.513Z,100728.36
2023-02-28T20:17:44.923Z,100724.98
2023-02-28T20:27:17.276Z,100722.88
2023-02-28T20:36:50.220Z,100718.38
2023-02-28T20:46:21.224Z,100717.84
2023-02-28T20:55:56.351Z,100712.23
2023-02-28T21:05:29.564Z,100720.12
2023-02-28T21:15:00.983Z,100710.20
2023-02-28T21:24:35.933Z,100711.44
2023-02-28T21:34:07.640Z,100707.83
2023-02-28T21:43:40.836Z,100701.56
2023-02-28T21:53:14.546Z,100694.00
2023-02-28T22:02:49.618Z,100701.89
2023-02-28T22:12:23.317Z,100702.53
2023-02-28T22:21:56.914Z,100706.36
2023-02-28T22:31:28.707Z,100702.89
2023-02-28T22:41:02.250Z,100711.16
2023-02-28T22:50:36.822Z,100712.17
2023-02-28T23:00:06.028Z,100721.04
2023-02-28T23:09:38.337Z,100724.45
2023-02-28T23:10:40.474Z,100726.96
2023-02-28T23:20:10.665Z,100726.70
2023-02-28T23:29:38.611Z,100726.79
2023-02-28T23:39:09.416Z,100723.25
2023-02-28T23:48:39.563Z,100722.77
2023-02-28T23:58:10.501Z,100726.38
